WetterOnline ( http://www.wetteronline.de )

Wetter aktuell Bad Fallingbostel

Aktuelles Wetter: Soltau (76m)

6-stündlich | Neueste Meldungen
Ortszeit Temperatur Wetter
Sa, 20.10. 14:00 11.9° C bedeckt
Sa, 20.10. 8:00 1.1° C wolkig
Sa, 20.10. 2:00 4.2° C bedeckt
Fr, 19.10. 20:00 6.3° C wolkig
Fr, 19.10. 14:00 12.2° C wolkenlos
Fr, 19.10. 8:00 0.2° C wolkenlos
Fr, 19.10. 2:00 4.5° C wolkenlos
Do, 18.10. 20:00 9.8° C wolkenlos
Ortszeit Temperatur Wetter
Sa, 20.10. 19:00 12.1° C bedeckt
Sa, 20.10. 18:40 12.2° C bedeckt
Sa, 20.10. 18:30 12.3° C bedeckt
Sa, 20.10. 18:20 12.3° C bedeckt
Sa, 20.10. 18:10 12.4° C bewölkt
Sa, 20.10. 18:00 12.5° C bewölkt
Sa, 20.10. 17:50 12.5° C bewölkt
Sa, 20.10. 17:30 12.8° C bedeckt
Sa, 20.10. 17:00 13.2° C bedeckt
Sa, 20.10. 16:30 13.6° C bewölkt
Sa, 20.10. 16:00 13.5° C bewölkt
Ortszeit Relative Feuchte Sichtweite
Sa, 20.10. 14:00 62% 45 km
Sa, 20.10. 8:00 99% 4.1 km
Sa, 20.10. 2:00 98% 11 km
Fr, 19.10. 20:00 92% 35 km
Fr, 19.10. 14:00 58% 45 km
Fr, 19.10. 8:00 100% 30 km
Fr, 19.10. 2:00 100% 1.0 km
Do, 18.10. 20:00 97% 2.5 km
Ortszeit Relative Feuchte Sichtweite
Sa, 20.10. 19:00 71% 35 km
Sa, 20.10. 18:40 71% -
Sa, 20.10. 18:30 71% 40 km
Sa, 20.10. 18:20 71% -
Sa, 20.10. 18:10 70% -
Sa, 20.10. 18:00 69% 35 km
Sa, 20.10. 17:50 69% -
Sa, 20.10. 17:30 67% 35 km
Sa, 20.10. 17:00 65% 45 km
Sa, 20.10. 16:30 62% 40 km
Sa, 20.10. 16:00 60% 35 km
Ortszeit Niederschlagsmenge Niederschlagsart
Sa, 20.10. 14:00 0.0 l/m2 in 6 Std. -
Sa, 20.10. 8:00 0.0 l/m2 in 12 Std. -
Sa, 20.10. 2:00 0.0 l/m2 in 6 Std. -
Fr, 19.10. 20:00 0.0 l/m2 in 12 Std. -
Fr, 19.10. 14:00 0.0 l/m2 in 6 Std. -
Fr, 19.10. 8:00 0.0 l/m2 in 12 Std. -
Fr, 19.10. 2:00 0.0 l/m2 in 6 Std. -
Do, 18.10. 20:00 2 l/m2 in 12 Std. Regen
Ortszeit Niederschlagsmenge Niederschlagsart
Sa, 20.10. 19:00 0.0 l/m2 in 1 Std. -
Sa, 20.10. 18:40 keine Meldung -
Sa, 20.10. 18:30 0.0 l/m2 in 1 Std. -
Sa, 20.10. 18:20 keine Meldung -
Sa, 20.10. 18:10 keine Meldung -
Sa, 20.10. 18:00 0.0 l/m2 in 1 Std. -
Sa, 20.10. 17:50 keine Meldung -
Sa, 20.10. 17:30 0.0 l/m2 in 1 Std. -
Sa, 20.10. 17:00 0.0 l/m2 in 1 Std. -
Sa, 20.10. 16:30 0.0 l/m2 in 1 Std. -
Sa, 20.10. 16:00 0.0 l/m2 in 1 Std. -
Ortszeit Stärke Spitze Richtung
km/h Bft. km/h Grad Sektor
Sa, 20.10. 14:00 17 3 26 250° W
Sa, 20.10. 8:00 0 0 7 - -
Sa, 20.10. 2:00 4 1 7 280° W
Fr, 19.10. 20:00 4 1 14 340° N
Fr, 19.10. 14:00 4 1 11 260° W
Fr, 19.10. 8:00 0 0 4 - -
Fr, 19.10. 2:00 0 0 11 - -
Do, 18.10. 20:00 6 1 24 320° NW
Ortszeit Stärke Spitze Richtung
km/h Bft. km/h Grad Sektor
Sa, 20.10. 19:00 7 2 11 240° SW
Sa, 20.10. 18:40 7 2 - 230° SW
Sa, 20.10. 18:30 9 2 13 230° SW
Sa, 20.10. 18:20 9 2 - 230° SW
Sa, 20.10. 18:10 7 2 - 230° SW
Sa, 20.10. 18:00 7 2 18 230° SW
Sa, 20.10. 17:50 7 2 - 230° SW
Sa, 20.10. 17:30 7 2 18 250° W
Sa, 20.10. 17:00 11 2 25 260° W
Sa, 20.10. 16:30 14 3 25 260° W
Sa, 20.10. 16:00 13 3 20 260° W
Ortszeit Untergrenze Bedeckung Gattung
total tief tief mittel hoch
Sa, 20.10. 14:00 1500 m 8/8 8/8 - - -
Sa, 20.10. 8:00 8400 m 8/8 0/8 - - -
Sa, 20.10. 2:00 870 m 8/8 8/8 - - -
Fr, 19.10. 20:00 7200 m 8/8 0/8 - - -
Fr, 19.10. 14:00 - 0/8 0/8 - - -
Fr, 19.10. 8:00 - 0/8 0/8 - - -
Fr, 19.10. 2:00 - 0/8 0/8 - - -
Do, 18.10. 20:00 - 0/8 0/8 - - -
Ortszeit Bedeckungsgrad in Achtel und Wolkenuntergrenze
Sa, 20.10. 19:00 4(780m) 7(1350m) 8(1500m)
Sa, 20.10. 18:40 2(780m) 6(1320m) 8(1500m)
Sa, 20.10. 18:30 3(810m) 6(1230m) 8(1500m)
Sa, 20.10. 18:20 3(810m) 6(1230m) 8(1500m)
Sa, 20.10. 18:10 5(870m) 7(1200m) 7(1500m)
Sa, 20.10. 18:00 6(930m) 7(1380m) 7(1500m)
Sa, 20.10. 17:50 6(930m) 7(1380m) 7(1500m)
Sa, 20.10. 17:30 7(960m) 8(1500m) 8(1500m)
Sa, 20.10. 17:00 6(960m) 7(1200m) 8(1500m)
Sa, 20.10. 16:30 4(960m) 7(1500m) 8(10500m)
Sa, 20.10. 16:00 1(1260m) 5(1500m) 7(10500m)
Ortszeit Luftdruck NN (hPa) Tendenz (hPa in 3 Std.)
Sa, 20.10. 14:00 1030 - 0,3
Sa, 20.10. 8:00 1029 + 1,0
Sa, 20.10. 2:00 1028 + 0,6
Fr, 19.10. 20:00 1026 + 0,7
Fr, 19.10. 14:00 1027 - 1,0
Fr, 19.10. 8:00 1027 + 0,3
Fr, 19.10. 2:00 1027 - 0,1
Do, 18.10. 20:00 1025 + 1,4
Ortszeit Luftdruck NN (hPa) Tendenz (hPa in 3 Std.)
Sa, 20.10. 19:00 1029 - 0,2
Sa, 20.10. 18:40 1029 keine Meldung
Sa, 20.10. 18:30 1029 - 0,3
Sa, 20.10. 18:20 1029 keine Meldung
Sa, 20.10. 18:10 1029 keine Meldung
Sa, 20.10. 18:00 1029 - 0,3
Sa, 20.10. 17:50 1029 keine Meldung
Sa, 20.10. 17:30 1029 - 0,5
Sa, 20.10. 17:00 1029 - 0,5
Sa, 20.10. 16:30 1029 - 0,6
Sa, 20.10. 16:00 1029 - 0,8
Ortszeit Schneehöhe (cm)
Sa, 20.10. 14:00 0
Sa, 20.10. 8:00 0
Sa, 20.10. 2:00 0
Fr, 19.10. 20:00 0
Fr, 19.10. 14:00 0
Fr, 19.10. 8:00 0
Fr, 19.10. 2:00 0
Do, 18.10. 20:00 0
Ortszeit Schneehöhe (cm)
Sa, 20.10. 19:00 0
Sa, 20.10. 18:40 0
Sa, 20.10. 18:30 0
Sa, 20.10. 18:20 0
Sa, 20.10. 18:10 0
Sa, 20.10. 18:00 0
Sa, 20.10. 17:50 0
Sa, 20.10. 17:30 0
Sa, 20.10. 17:00 0
Sa, 20.10. 16:30 0
Sa, 20.10. 16:00 0
Link zu dieser Seite / Seite empfehlen

Das Wetter in ...